Gardendale, Texas
Current Conditions -  °F | °C
As of 10:53 PM on Wednesday 22 Oct 2014 (Local Time) from KODO Reporting Station
Clear Clear  
Wind Chill: 61°   Ceiling: Unl
Heat Index: 61°   Visibility: 10mi
Dew Point: 52°   Wind: 10mph
Humidity: 72%   Direction: 150°SSE
Pressure: 30.14"   Gusts: NA
Location:  32.02°N, 102.36°W
Report Text: KODO 230353Z AUTO 15009KT 10SM CLR 16/11 A3014 RMK AO2 SLP176 T01610111
Loading
Personal Weather Stations






























Interactive Weather Map
Tropical Storm Tracking
New forecast layout! Learn more

10-Day Weather Forecast

Advertisements
Track Severe Weather on mobile